createdAt,value
2018-06-19T00:01:09.579Z,10.53
2018-06-19T00:03:38.528Z,9.75
2018-06-19T00:06:07.858Z,9.58
2018-06-19T00:08:36.985Z,9.78
2018-06-19T00:11:06.219Z,10.20
2018-06-19T00:13:35.200Z,10.32
2018-06-19T00:16:04.267Z,9.88
2018-06-19T00:18:35.386Z,10.75
2018-06-19T00:21:09.892Z,9.10
2018-06-19T00:23:38.850Z,9.83
2018-06-19T00:26:07.757Z,11.50
2018-06-19T00:28:40.226Z,10.15
2018-06-19T00:31:09.196Z,9.55
2018-06-19T00:33:38.040Z,9.80
2018-06-19T00:36:06.963Z,11.10
2018-06-19T00:38:35.855Z,9.75
2018-06-19T00:41:04.776Z,9.90
2018-06-19T00:43:33.677Z,12.58
2018-06-19T00:46:02.806Z,10.78
2018-06-19T00:48:32.101Z,11.45
2018-06-19T00:51:00.980Z,11.63
2018-06-19T00:53:29.902Z,11.48
2018-06-19T00:56:10.035Z,11.55
2018-06-19T00:58:38.943Z,11.00
2018-06-19T01:01:08.217Z,11.45
2018-06-19T01:03:37.237Z,11.30
2018-06-19T01:06:06.170Z,12.90
2018-06-19T01:08:36.113Z,12.00
2018-06-19T01:11:05.053Z,12.65
2018-06-19T01:13:34.295Z,13.55
2018-06-19T01:16:04.172Z,11.43
2018-06-19T01:18:33.075Z,12.58
2018-06-19T01:21:02.292Z,11.20
2018-06-19T01:23:31.386Z,10.85
2018-06-19T01:26:00.576Z,10.95
2018-06-19T01:28:29.864Z,12.07
2018-06-19T01:30:59.179Z,11.30
2018-06-19T01:33:28.077Z,12.60
2018-06-19T01:35:57.057Z,12.07
2018-06-19T01:38:26.211Z,11.20
2018-06-19T01:40:55.247Z,10.68
2018-06-19T01:43:24.112Z,11.50
2018-06-19T01:45:53.328Z,11.22
2018-06-19T01:48:22.210Z,11.80
2018-06-19T01:50:51.074Z,11.25
2018-06-19T01:53:19.974Z,11.65
2018-06-19T01:55:48.856Z,11.68
2018-06-19T01:58:17.783Z,11.28
2018-06-19T02:00:46.858Z,13.35
2018-06-19T02:03:16.223Z,11.48
2018-06-19T02:05:45.232Z,12.37
2018-06-19T02:08:15.020Z,12.37
2018-06-19T02:10:43.917Z,10.15
2018-06-19T02:13:12.890Z,12.25
2018-06-19T02:15:41.931Z,11.15
2018-06-19T02:18:11.083Z,11.40
2018-06-19T02:20:40.319Z,13.83
2018-06-19T02:23:09.517Z,10.55
2018-06-19T02:25:38.577Z,11.68
2018-06-19T02:28:08.110Z,11.03
2018-06-19T02:30:37.253Z,12.23
2018-06-19T02:33:06.147Z,11.30
2018-06-19T02:35:35.166Z,11.12
2018-06-19T02:38:04.119Z,10.90
2018-06-19T02:40:33.052Z,12.28
2018-06-19T02:43:02.162Z,12.63
2018-06-19T02:45:31.719Z,13.20
2018-06-19T02:48:00.613Z,11.97
2018-06-19T02:50:29.642Z,11.57
2018-06-19T02:52:59.284Z,12.55
2018-06-19T02:55:28.503Z,14.58
2018-06-19T02:57:57.528Z,12.20
2018-06-19T03:00:26.451Z,12.73
2018-06-19T03:02:55.408Z,12.40
2018-06-19T03:05:24.505Z,13.88
2018-06-19T03:07:53.435Z,12.28
2018-06-19T03:10:22.384Z,13.28
2018-06-19T03:12:51.580Z,13.68
2018-06-19T03:15:20.576Z,13.40
2018-06-19T03:17:49.525Z,12.03
2018-06-19T03:20:18.453Z,11.75
2018-06-19T03:22:47.443Z,11.80
2018-06-19T03:25:16.538Z,12.88
2018-06-19T03:27:45.915Z,10.63
2018-06-19T03:30:14.956Z,11.12
2018-06-19T03:32:43.795Z,10.10
2018-06-19T03:35:12.806Z,13.48
2018-06-19T03:37:41.672Z,9.95
2018-06-19T03:40:10.616Z,11.03
2018-06-19T03:42:39.572Z,10.50
2018-06-19T03:45:08.504Z,9.53
2018-06-19T03:47:36.979Z,7.97
2018-06-19T03:50:06.000Z,9.98
2018-06-19T03:52:34.865Z,10.88
2018-06-19T03:55:03.777Z,9.38
2018-06-19T03:57:32.691Z,9.75
2018-06-19T04:00:01.584Z,8.88
2018-06-19T04:02:30.520Z,8.20
2018-06-19T04:04:59.400Z,8.50
2018-06-19T04:07:28.333Z,9.45
2018-06-19T04:09:57.198Z,9.98
2018-06-19T04:12:26.142Z,11.63
2018-06-19T04:14:55.016Z,8.25
2018-06-19T04:17:26.792Z,8.58
2018-06-19T04:19:57.207Z,11.48
2018-06-19T04:22:27.593Z,13.78
2018-06-19T04:24:56.706Z,11.75
2018-06-19T04:27:25.590Z,9.90
2018-06-19T04:29:54.511Z,9.58
2018-06-19T04:32:23.378Z,8.40
2018-06-19T04:34:52.415Z,7.92
2018-06-19T04:37:21.464Z,9.18
2018-06-19T04:39:50.922Z,8.10
2018-06-19T04:42:19.811Z,7.40
2018-06-19T04:44:48.704Z,8.23
2018-06-19T04:47:17.614Z,9.55
2018-06-19T04:49:46.551Z,9.13
2018-06-19T04:52:15.494Z,6.70
2018-06-19T04:54:44.417Z,11.33
2018-06-19T04:57:13.387Z,7.37
2018-06-19T04:59:42.251Z,7.30
2018-06-19T05:02:11.168Z,7.30
2018-06-19T05:04:40.077Z,8.35
2018-06-19T05:07:08.981Z,6.60
2018-06-19T05:09:37.864Z,7.10
2018-06-19T05:12:07.049Z,6.87
2018-06-19T05:14:35.921Z,9.28
2018-06-19T05:17:04.902Z,6.62
2018-06-19T05:19:33.812Z,6.90
2018-06-19T05:22:03.652Z,7.15
2018-06-19T05:24:33.645Z,13.15
2018-06-19T05:27:02.616Z,10.13
2018-06-19T05:29:31.463Z,8.78
2018-06-19T05:32:00.341Z,17.70
2018-06-19T05:34:29.309Z,12.47
2018-06-19T05:36:57.783Z,21.12
2018-06-19T05:39:26.732Z,30.27
2018-06-19T05:41:55.602Z,9.43
2018-06-19T05:44:24.588Z,6.70
2018-06-19T05:46:54.232Z,9.43
2018-06-19T05:49:23.139Z,8.38
2018-06-19T05:51:52.071Z,6.72
2018-06-19T05:54:21.118Z,8.95
2018-06-19T05:56:50.050Z,5.22
2018-06-19T05:59:18.971Z,9.30
2018-06-19T06:01:47.912Z,5.62
2018-06-19T06:04:16.823Z,11.85
2018-06-19T06:06:45.827Z,5.22
2018-06-19T06:09:14.772Z,9.48
2018-06-19T06:11:43.680Z,5.40
2018-06-19T06:14:12.596Z,5.08
2018-06-19T06:16:41.520Z,5.55
2018-06-19T06:19:10.449Z,4.65
2018-06-19T06:21:39.387Z,6.28
2018-06-19T06:24:08.290Z,8.80
2018-06-19T06:26:36.862Z,6.70
2018-06-19T06:29:05.897Z,7.33
2018-06-19T06:31:34.808Z,7.33
2018-06-19T06:34:03.757Z,5.85
2018-06-19T06:36:32.663Z,5.87
2018-06-19T06:39:01.619Z,5.47
2018-06-19T06:41:30.524Z,7.28
2018-06-19T06:43:59.426Z,5.05
2018-06-19T06:46:28.428Z,10.15
2018-06-19T06:48:57.467Z,12.47
2018-06-19T06:51:26.399Z,5.28
2018-06-19T06:53:55.322Z,5.80
2018-06-19T06:56:24.423Z,5.85
2018-06-19T06:58:53.416Z,8.35
2018-06-19T07:01:22.303Z,4.40
2018-06-19T07:03:51.228Z,4.00
2018-06-19T07:06:19.782Z,5.03
2018-06-19T07:08:48.863Z,4.03
2018-06-19T07:11:18.056Z,5.83
2018-06-19T07:13:47.192Z,4.60
2018-06-19T07:16:16.326Z,5.90
2018-06-19T07:18:45.484Z,3.87
2018-06-19T07:21:14.699Z,5.03
2018-06-19T07:23:43.812Z,2.63
2018-06-19T07:26:13.686Z,4.20
2018-06-19T07:28:43.344Z,5.30
2018-06-19T07:31:12.612Z,4.90
2018-06-19T07:33:41.941Z,2.70
2018-06-19T07:36:11.456Z,4.03
2018-06-19T07:38:41.261Z,3.60
2018-06-19T07:41:11.038Z,3.83
2018-06-19T07:43:40.331Z,4.50
2018-06-19T07:46:09.611Z,5.00
2018-06-19T07:48:38.747Z,2.47
2018-06-19T07:51:07.909Z,5.93
2018-06-19T07:53:37.721Z,4.63
2018-06-19T07:56:06.910Z,3.57
2018-06-19T07:58:36.763Z,8.17
2018-06-19T08:01:05.692Z,2.70
2018-06-19T08:03:34.603Z,5.70
2018-06-19T08:06:03.475Z,4.30
2018-06-19T08:08:32.371Z,3.33
2018-06-19T08:11:01.320Z,4.33
2018-06-19T08:13:30.325Z,3.40
2018-06-19T08:15:59.273Z,4.27
2018-06-19T08:18:29.060Z,3.50
2018-06-19T08:20:58.146Z,5.13
2018-06-19T08:23:27.234Z,6.20
2018-06-19T08:25:57.000Z,5.90
2018-06-19T08:28:26.166Z,4.00
2018-06-19T08:30:55.464Z,3.60
2018-06-19T08:33:24.938Z,2.67
2018-06-19T08:35:54.271Z,3.40
2018-06-19T08:38:23.535Z,2.67
2018-06-19T08:40:53.580Z,4.10
2018-06-19T08:43:22.792Z,3.10
2018-06-19T08:45:52.449Z,5.50
2018-06-19T08:48:21.900Z,2.97
2018-06-19T08:50:51.061Z,3.63
2018-06-19T08:53:20.183Z,2.70
2018-06-19T08:55:49.177Z,4.73
2018-06-19T08:58:18.352Z,8.70
2018-06-19T09:00:47.245Z,3.90
2018-06-19T09:03:16.269Z,3.60
2018-06-19T09:05:45.115Z,4.10
2018-06-19T09:08:14.105Z,4.97
2018-06-19T09:10:43.009Z,4.50
2018-06-19T09:13:11.948Z,5.10
2018-06-19T09:15:40.912Z,2.70
2018-06-19T09:18:09.824Z,2.93
2018-06-19T09:20:38.805Z,4.43
2018-06-19T09:23:07.687Z,2.20
2018-06-19T09:25:36.639Z,8.90
2018-06-19T09:28:05.667Z,5.40
2018-06-19T09:30:34.579Z,4.60
2018-06-19T09:33:03.487Z,3.40
2018-06-19T09:35:32.401Z,3.90
2018-06-19T09:38:01.360Z,2.43
2018-06-19T09:40:30.331Z,2.73
2018-06-19T09:42:59.316Z,3.60
2018-06-19T09:45:28.266Z,3.27
2018-06-19T09:47:57.209Z,3.67
2018-06-19T09:50:26.152Z,2.50
2018-06-19T09:52:55.160Z,2.80
2018-06-19T09:55:24.131Z,3.23
2018-06-19T09:57:52.699Z,7.10
2018-06-19T10:00:26.985Z,3.50
2018-06-19T10:02:56.033Z,4.17
2018-06-19T10:05:24.987Z,4.90
2018-06-19T10:07:53.941Z,4.50
2018-06-19T10:10:22.434Z,5.40
2018-06-19T10:12:51.447Z,3.60
2018-06-19T10:15:20.436Z,4.20
2018-06-19T10:17:49.320Z,3.03
2018-06-19T10:20:18.270Z,5.40
2018-06-19T10:22:47.296Z,3.93
2018-06-19T10:25:16.422Z,5.10
2018-06-19T10:27:45.575Z,3.57
2018-06-19T10:30:14.565Z,5.67
2018-06-19T10:32:43.476Z,4.40
2018-06-19T10:35:12.391Z,2.70
2018-06-19T10:37:41.296Z,6.67
2018-06-19T10:40:10.242Z,5.63
2018-06-19T10:42:39.137Z,3.40
2018-06-19T10:45:08.055Z,4.47
2018-06-19T10:47:36.956Z,7.37
2018-06-19T10:50:05.915Z,2.77
2018-06-19T10:52:34.860Z,9.03
2018-06-19T10:55:03.751Z,4.90
2018-06-19T10:57:32.645Z,3.83
2018-06-19T11:00:01.585Z,2.22
2018-06-19T11:02:30.495Z,5.23
2018-06-19T11:04:59.448Z,5.50
2018-06-19T11:07:30.435Z,4.33
2018-06-19T11:10:01.135Z,5.03
2018-06-19T11:12:30.227Z,5.20
2018-06-19T11:14:59.229Z,5.40
2018-06-19T11:17:28.189Z,4.40
2018-06-19T11:19:57.156Z,5.47
2018-06-19T11:22:26.085Z,3.30
2018-06-19T11:24:55.067Z,3.13
2018-06-19T11:27:23.972Z,2.40
2018-06-19T11:29:52.911Z,2.77
2018-06-19T11:32:21.813Z,3.17
2018-06-19T11:34:50.768Z,5.53
2018-06-19T11:37:19.708Z,2.80
2018-06-19T11:39:48.657Z,3.97
2018-06-19T11:42:17.615Z,2.53
2018-06-19T11:44:46.605Z,3.03
2018-06-19T11:47:15.518Z,2.67
2018-06-19T11:49:44.468Z,4.80
2018-06-19T11:52:13.352Z,5.00
2018-06-19T11:54:42.276Z,5.33
2018-06-19T11:57:11.522Z,3.27
2018-06-19T11:59:40.386Z,5.07
2018-06-19T12:02:09.371Z,1.82
2018-06-19T12:04:38.318Z,3.90
2018-06-19T12:07:07.351Z,3.73
2018-06-19T12:09:36.275Z,6.83
2018-06-19T12:12:05.235Z,4.33
2018-06-19T12:14:34.157Z,3.22
2018-06-19T12:17:03.159Z,3.10
2018-06-19T12:19:32.018Z,4.78
2018-06-19T12:22:00.997Z,3.25
2018-06-19T12:24:29.936Z,3.42
2018-06-19T12:26:58.909Z,3.35
2018-06-19T12:29:27.839Z,8.43
2018-06-19T12:31:56.741Z,5.28
2018-06-19T12:34:25.666Z,2.70
2018-06-19T12:36:54.553Z,2.50
2018-06-19T12:39:23.502Z,3.77
2018-06-19T12:41:52.416Z,2.03
2018-06-19T12:44:21.320Z,2.27
2018-06-19T12:46:50.230Z,2.90
2018-06-19T12:50:34.196Z,3.50
2018-06-19T12:53:15.032Z,3.83
2018-06-19T12:55:55.411Z,3.00
2018-06-19T12:58:24.315Z,1.87
2018-06-19T13:00:53.253Z,8.83
2018-06-19T13:03:33.278Z,7.00
2018-06-19T13:06:13.315Z,4.30
2018-06-19T13:08:42.199Z,5.10
2018-06-19T13:11:11.115Z,3.50
2018-06-19T13:13:51.171Z,4.47
2018-06-19T13:16:31.275Z,2.45
2018-06-19T13:19:11.346Z,3.40
2018-06-19T13:21:40.275Z,7.37
2018-06-19T13:24:09.270Z,6.30
2018-06-19T13:26:38.157Z,3.77
2018-06-19T13:29:44.860Z,6.30
2018-06-19T13:32:13.825Z,2.42
2018-06-19T13:34:42.811Z,6.33
2018-06-19T13:37:11.714Z,3.62
2018-06-19T13:39:41.230Z,4.80
2018-06-19T13:42:22.527Z,6.10
2018-06-19T13:44:54.572Z,3.33
2018-06-19T13:47:23.568Z,4.10
2018-06-19T13:49:52.468Z,7.75
2018-06-19T13:52:21.459Z,4.42
2018-06-19T13:54:50.398Z,5.37
2018-06-19T13:57:35.455Z,4.47
2018-06-19T14:00:06.822Z,4.45
2018-06-19T14:02:35.808Z,4.90
2018-06-19T14:05:05.373Z,5.53
2018-06-19T14:07:39.820Z,2.75
2018-06-19T14:10:21.532Z,2.67
2018-06-19T14:13:05.917Z,3.10
2018-06-19T14:15:37.772Z,7.78
2018-06-19T14:18:07.074Z,5.50
2018-06-19T14:20:36.148Z,3.60
2018-06-19T14:23:05.219Z,3.30
2018-06-19T14:25:34.151Z,9.08
2018-06-19T14:28:03.111Z,5.33
2018-06-19T14:30:32.039Z,3.35
2018-06-19T14:33:00.907Z,3.22
2018-06-19T14:35:29.908Z,5.58
2018-06-19T14:37:58.814Z,6.70
2018-06-19T14:40:27.753Z,4.97
2018-06-19T14:42:56.690Z,3.98
2018-06-19T14:45:26.196Z,5.78
2018-06-19T14:47:55.104Z,3.30
2018-06-19T14:50:24.040Z,3.65
2018-06-19T14:52:53.067Z,5.85
2018-06-19T14:55:22.017Z,4.75
2018-06-19T14:57:51.254Z,3.95
2018-06-19T15:00:20.184Z,3.72
2018-06-19T15:02:49.379Z,3.45
2018-06-19T15:05:18.371Z,3.60
2018-06-19T15:07:52.915Z,4.20
2018-06-19T15:10:22.387Z,5.75
2018-06-19T15:12:51.356Z,4.78
2018-06-19T15:15:20.491Z,4.53
2018-06-19T15:17:49.609Z,5.20
2018-06-19T15:20:18.654Z,4.20
2018-06-19T15:22:47.786Z,4.70
2018-06-19T15:25:16.739Z,3.27
2018-06-19T15:27:45.721Z,3.92
2018-06-19T15:30:15.188Z,7.45
2018-06-19T15:32:44.309Z,5.50
2018-06-19T15:35:13.875Z,6.42
2018-06-19T15:37:43.992Z,5.65
2018-06-19T15:40:12.907Z,6.30
2018-06-19T15:42:41.911Z,5.15
2018-06-19T15:45:11.524Z,3.65
2018-06-19T15:47:40.613Z,3.70
2018-06-19T15:50:09.815Z,3.87
2018-06-19T15:52:38.752Z,4.55
2018-06-19T15:55:07.705Z,4.00
2018-06-19T15:57:36.691Z,5.05
2018-06-19T16:00:05.984Z,6.42
2018-06-19T16:02:34.959Z,4.97
2018-06-19T16:05:03.955Z,5.95
2018-06-19T16:07:32.979Z,4.33
2018-06-19T16:10:01.951Z,4.50
2018-06-19T16:12:30.939Z,4.45
2018-06-19T16:14:59.880Z,7.25
2018-06-19T16:17:28.823Z,4.80
2018-06-19T16:19:57.782Z,4.80
2018-06-19T16:22:26.794Z,4.97
2018-06-19T16:24:55.763Z,5.47
2018-06-19T16:27:24.675Z,4.20
2018-06-19T16:29:53.615Z,4.03
2018-06-19T16:32:22.537Z,4.65
2018-06-19T16:34:51.500Z,3.77
2018-06-19T16:37:20.448Z,7.87
2018-06-19T16:39:49.375Z,4.90
2018-06-19T16:42:18.347Z,4.00
2018-06-19T16:44:47.379Z,4.60
2018-06-19T16:47:16.913Z,10.85
2018-06-19T16:49:45.816Z,4.78
2018-06-19T16:52:15.160Z,4.67
2018-06-19T16:54:44.080Z,4.75
2018-06-19T16:57:13.021Z,4.40
2018-06-19T16:59:41.935Z,5.12
2018-06-19T17:02:11.239Z,4.33
2018-06-19T17:04:40.152Z,3.90
2018-06-19T17:07:09.079Z,4.65
2018-06-19T17:09:38.013Z,4.58
2018-06-19T17:12:07.037Z,5.12
2018-06-19T17:14:35.981Z,7.33
2018-06-19T17:17:04.895Z,6.55
2018-06-19T17:19:33.907Z,6.40
2018-06-19T17:22:02.821Z,5.00
2018-06-19T17:24:32.009Z,4.70
2018-06-19T17:27:00.949Z,4.47
2018-06-19T17:29:29.935Z,4.42
2018-06-19T17:31:58.863Z,5.42
2018-06-19T17:34:27.925Z,4.47
2018-06-19T17:36:56.848Z,5.33
2018-06-19T17:39:25.767Z,12.53
2018-06-19T17:41:54.739Z,5.42
2018-06-19T17:44:23.673Z,4.78
2018-06-19T17:46:53.701Z,6.75
2018-06-19T17:49:22.652Z,4.72
2018-06-19T17:51:51.588Z,5.22
2018-06-19T17:54:20.552Z,5.40
2018-06-19T17:56:49.105Z,5.15
2018-06-19T17:59:18.912Z,4.60
2018-06-19T18:01:47.878Z,6.65
2018-06-19T18:04:16.830Z,5.87
2018-06-19T18:06:45.858Z,5.25
2018-06-19T18:09:14.986Z,5.22
2018-06-19T18:11:44.307Z,5.80
2018-06-19T18:14:13.223Z,8.03
2018-06-19T18:16:42.232Z,6.83
2018-06-19T18:19:11.487Z,8.55
2018-06-19T18:21:40.948Z,7.90
2018-06-19T18:24:09.867Z,7.97
2018-06-19T18:26:38.767Z,5.03
2018-06-19T18:29:07.898Z,9.58
2018-06-19T18:31:36.823Z,6.78
2018-06-19T18:34:05.950Z,6.20
2018-06-19T18:36:35.001Z,6.47
2018-06-19T18:39:05.151Z,6.72
2018-06-19T18:41:34.180Z,8.88
2018-06-19T18:44:03.108Z,5.55
2018-06-19T18:46:32.097Z,5.95
2018-06-19T18:49:01.054Z,5.78
2018-06-19T18:51:30.024Z,6.25
2018-06-19T18:53:59.638Z,7.42
2018-06-19T18:56:28.669Z,7.08
2018-06-19T18:58:57.628Z,5.72
2018-06-19T19:01:26.592Z,6.70
2018-06-19T19:03:55.604Z,5.92
2018-06-19T19:06:24.743Z,5.60
2018-06-19T19:08:53.667Z,8.00
2018-06-19T19:11:22.784Z,5.78
2018-06-19T19:13:51.745Z,6.12
2018-06-19T19:16:25.783Z,5.67
2018-06-19T19:19:00.140Z,6.55
2018-06-19T19:21:29.089Z,12.03
2018-06-19T19:23:58.247Z,7.95
2018-06-19T19:26:32.787Z,9.15
2018-06-19T19:29:07.311Z,6.55
2018-06-19T19:31:37.199Z,5.60
2018-06-19T19:34:06.580Z,8.70
2018-06-19T19:36:42.152Z,6.50
2018-06-19T19:39:16.374Z,7.28
2018-06-19T19:41:46.488Z,7.70
2018-06-19T19:44:15.965Z,6.72
2018-06-19T19:46:50.105Z,7.67
2018-06-19T19:49:19.042Z,7.05
2018-06-19T19:51:47.955Z,6.90
2018-06-19T19:54:16.538Z,8.53
2018-06-19T19:56:50.755Z,7.20
2018-06-19T19:59:19.781Z,7.33
2018-06-19T20:01:48.699Z,9.68
2018-06-19T20:04:17.662Z,5.78
2018-06-19T20:06:46.640Z,7.05
2018-06-19T20:09:15.554Z,7.25
2018-06-19T20:11:45.646Z,6.55
2018-06-19T20:14:14.853Z,9.20
2018-06-19T20:16:43.877Z,7.03
2018-06-19T20:19:12.964Z,6.60
2018-06-19T20:21:41.920Z,6.70
2018-06-19T20:24:10.977Z,9.70
2018-06-19T20:26:39.909Z,8.90
2018-06-19T20:29:08.915Z,7.03
2018-06-19T20:31:37.849Z,7.08
2018-06-19T20:34:07.134Z,9.28
2018-06-19T20:36:36.050Z,6.65
2018-06-19T20:39:08.147Z,10.28
2018-06-19T20:41:37.098Z,7.30
2018-06-19T20:44:06.116Z,6.80
2018-06-19T20:46:35.056Z,7.25
2018-06-19T20:49:04.071Z,7.92
2018-06-19T20:51:33.108Z,9.48
2018-06-19T20:54:02.019Z,9.23
2018-06-19T20:56:30.984Z,7.80
2018-06-19T20:58:59.907Z,10.23
2018-06-19T21:01:28.872Z,7.70
2018-06-19T21:03:57.800Z,7.00
2018-06-19T21:06:26.977Z,7.75
2018-06-19T21:08:55.899Z,7.58
2018-06-19T21:11:24.887Z,8.00
2018-06-19T21:13:53.824Z,7.25
2018-06-19T21:16:22.868Z,7.65
2018-06-19T21:18:51.785Z,7.17
2018-06-19T21:21:20.736Z,7.95
2018-06-19T21:23:49.692Z,7.42
2018-06-19T21:26:18.624Z,7.25
2018-06-19T21:28:47.569Z,8.15
2018-06-19T21:31:16.768Z,9.38
2018-06-19T21:33:45.726Z,8.08
2018-06-19T21:36:14.661Z,7.70
2018-06-19T21:38:43.596Z,7.67
2018-06-19T21:41:12.496Z,9.48
2018-06-19T21:43:41.422Z,8.43
2018-06-19T21:46:10.338Z,7.92
2018-06-19T21:48:39.327Z,7.80
2018-06-19T21:51:08.256Z,8.38
2018-06-19T21:53:37.184Z,7.58
2018-06-19T21:56:06.233Z,9.03
2018-06-19T21:58:35.150Z,7.83
2018-06-19T22:01:04.124Z,8.63
2018-06-19T22:03:33.048Z,7.92
2018-06-19T22:06:01.603Z,8.73
2018-06-19T22:08:34.696Z,8.53
2018-06-19T22:11:03.642Z,8.20
2018-06-19T22:13:32.559Z,7.83
2018-06-19T22:16:01.508Z,8.50
2018-06-19T22:18:30.648Z,7.90
2018-06-19T22:20:59.624Z,8.55
2018-06-19T22:23:28.667Z,7.97
2018-06-19T22:25:57.835Z,8.15
2018-06-19T22:28:26.830Z,9.18
2018-06-19T22:30:55.755Z,7.85
2018-06-19T22:33:24.720Z,11.18
2018-06-19T22:35:53.724Z,8.23
2018-06-19T22:38:22.705Z,8.50
2018-06-19T22:40:51.631Z,8.85
2018-06-19T22:43:20.581Z,8.18
2018-06-19T22:45:49.503Z,9.08
2018-06-19T22:48:18.476Z,8.10
2018-06-19T22:50:47.391Z,8.23
2018-06-19T22:53:16.407Z,9.23
2018-06-19T22:55:45.320Z,9.48
2018-06-19T22:58:14.268Z,9.15
2018-06-19T23:00:43.304Z,8.10
2018-06-19T23:03:12.196Z,8.28
2018-06-19T23:05:41.147Z,8.20
2018-06-19T23:08:10.159Z,8.20
2018-06-19T23:10:39.099Z,11.00
2018-06-19T23:13:08.020Z,8.70
2018-06-19T23:15:36.972Z,10.20
2018-06-19T23:18:06.038Z,9.10
2018-06-19T23:20:35.135Z,10.10
2018-06-19T23:23:04.105Z,8.75
2018-06-19T23:25:33.013Z,9.75
2018-06-19T23:28:01.941Z,9.60
2018-06-19T23:30:30.846Z,8.90
2018-06-19T23:32:59.831Z,8.85
2018-06-19T23:35:28.808Z,9.58
2018-06-19T23:37:57.856Z,9.60
2018-06-19T23:40:26.818Z,10.70
2018-06-19T23:42:55.759Z,10.00
2018-06-19T23:45:24.667Z,12.45
2018-06-19T23:47:53.604Z,9.38
2018-06-19T23:50:22.507Z,9.45
2018-06-19T23:52:51.503Z,10.82
2018-06-19T23:55:20.441Z,9.95
2018-06-19T23:57:49.414Z,9.13
